sensor_id;sensor_type;location;lat;lon;timestamp;temperature;humidity
67890;DHT22;54685;52.082;5.426;2022-10-17T00:00:37;14.40;99.90
67890;DHT22;54685;52.082;5.426;2022-10-17T00:03:04;14.40;99.90
67890;DHT22;54685;52.082;5.426;2022-10-17T00:05:31;14.40;99.90
67890;DHT22;54685;52.082;5.426;2022-10-17T00:07:58;14.40;99.90
67890;DHT22;54685;52.082;5.426;2022-10-17T00:10:25;14.40;99.90
67890;DHT22;54685;52.082;5.426;2022-10-17T00:12:52;14.40;99.90
67890;DHT22;54685;52.082;5.426;2022-10-17T00:15:20;14.40;99.90
67890;DHT22;54685;52.082;5.426;2022-10-17T00:17:48;14.40;99.90
67890;DHT22;54685;52.082;5.426;2022-10-17T00:20:15;14.40;99.90
67890;DHT22;54685;52.082;5.426;2022-10-17T00:22:42;14.30;99.90
67890;DHT22;54685;52.082;5.426;2022-10-17T00:25:09;14.30;99.90
67890;DHT22;54685;52.082;5.426;2022-10-17T00:27:40;14.30;99.90
67890;DHT22;54685;52.082;5.426;2022-10-17T00:30:11;14.30;99.90
67890;DHT22;54685;52.082;5.426;2022-10-17T00:32:39;14.30;99.90
67890;DHT22;54685;52.082;5.426;2022-10-17T00:35:06;14.30;99.90
67890;DHT22;54685;52.082;5.426;2022-10-17T00:37:33;14.30;99.90
67890;DHT22;54685;52.082;5.426;2022-10-17T00:40:00;14.30;99.90
67890;DHT22;54685;52.082;5.426;2022-10-17T00:42:27;14.30;99.90
67890;DHT22;54685;52.082;5.426;2022-10-17T00:47:35;14.30;99.90
67890;DHT22;54685;52.082;5.426;2022-10-17T00:50:04;14.30;99.90
67890;DHT22;54685;52.082;5.426;2022-10-17T00:52:31;14.30;99.90
67890;DHT22;54685;52.082;5.426;2022-10-17T00:55:23;14.40;99.90
67890;DHT22;54685;52.082;5.426;2022-10-17T00:57:51;14.40;99.90
67890;DHT22;54685;52.082;5.426;2022-10-17T01:00:18;14.40;99.90
67890;DHT22;54685;52.082;5.426;2022-10-17T01:02:46;14.40;99.90
67890;DHT22;54685;52.082;5.426;2022-10-17T01:05:14;14.40;99.90
67890;DHT22;54685;52.082;5.426;2022-10-17T01:07:42;14.40;99.90
67890;DHT22;54685;52.082;5.426;2022-10-17T01:10:10;14.40;99.90
67890;DHT22;54685;52.082;5.426;2022-10-17T01:12:58;14.40;99.90
67890;DHT22;54685;52.082;5.426;2022-10-17T01:18:24;14.40;99.90
67890;DHT22;54685;52.082;5.426;2022-10-17T01:24:12;14.40;99.90
67890;DHT22;54685;52.082;5.426;2022-10-17T01:27:16;14.40;99.90
67890;DHT22;54685;52.082;5.426;2022-10-17T01:29:56;14.30;99.90
67890;DHT22;54685;52.082;5.426;2022-10-17T01:32:45;14.30;99.90
67890;DHT22;54685;52.082;5.426;2022-10-17T01:35:19;14.30;99.90
67890;DHT22;54685;52.082;5.426;2022-10-17T01:38:05;14.30;99.90
67890;DHT22;54685;52.082;5.426;2022-10-17T01:45:49;14.30;99.90
67890;DHT22;54685;52.082;5.426;2022-10-17T01:48:23;14.30;99.90
67890;DHT22;54685;52.082;5.426;2022-10-17T01:50:52;14.30;99.90
67890;DHT22;54685;52.082;5.426;2022-10-17T01:53:36;14.30;99.90
67890;DHT22;54685;52.082;5.426;2022-10-17T01:56:06;14.30;99.90
67890;DHT22;54685;52.082;5.426;2022-10-17T01:58:42;14.30;99.90
67890;DHT22;54685;52.082;5.426;2022-10-17T02:01:11;14.30;99.90
67890;DHT22;54685;52.082;5.426;2022-10-17T02:03:40;14.20;99.90
67890;DHT22;54685;52.082;5.426;2022-10-17T02:06:08;14.20;99.90
67890;DHT22;54685;52.082;5.426;2022-10-17T02:08:42;14.30;99.90
67890;DHT22;54685;52.082;5.426;2022-10-17T02:16:33;14.20;99.90
67890;DHT22;54685;52.082;5.426;2022-10-17T02:19:06;14.30;99.90
67890;DHT22;54685;52.082;5.426;2022-10-17T02:21:46;14.30;99.90
67890;DHT22;54685;52.082;5.426;2022-10-17T02:24:38;14.30;99.90
67890;DHT22;54685;52.082;5.426;2022-10-17T02:27:52;14.30;99.90
67890;DHT22;54685;52.082;5.426;2022-10-17T02:30:44;14.30;99.90
67890;DHT22;54685;52.082;5.426;2022-10-17T02:35:49;14.30;99.90
67890;DHT22;54685;52.082;5.426;2022-10-17T02:38:19;14.30;99.90
67890;DHT22;54685;52.082;5.426;2022-10-17T02:40:49;14.30;99.90
67890;DHT22;54685;52.082;5.426;2022-10-17T02:43:18;14.30;99.90
67890;DHT22;54685;52.082;5.426;2022-10-17T02:45:45;14.30;99.90
67890;DHT22;54685;52.082;5.426;2022-10-17T02:54:21;14.30;99.90
67890;DHT22;54685;52.082;5.426;2022-10-17T02:56:54;14.50;99.90
67890;DHT22;54685;52.082;5.426;2022-10-17T02:59:22;14.60;99.90
67890;DHT22;54685;52.082;5.426;2022-10-17T03:01:51;14.70;99.90
67890;DHT22;54685;52.082;5.426;2022-10-17T03:04:18;14.70;99.90
67890;DHT22;54685;52.082;5.426;2022-10-17T03:06:47;14.90;99.90
67890;DHT22;54685;52.082;5.426;2022-10-17T03:09:14;14.90;99.90
67890;DHT22;54685;52.082;5.426;2022-10-17T03:11:41;15.00;99.90
67890;DHT22;54685;52.082;5.426;2022-10-17T03:14:08;15.00;99.90
67890;DHT22;54685;52.082;5.426;2022-10-17T03:16:35;15.10;99.90
67890;DHT22;54685;52.082;5.426;2022-10-17T03:19:03;15.10;99.90
67890;DHT22;54685;52.082;5.426;2022-10-17T03:21:31;15.10;99.90
67890;DHT22;54685;52.082;5.426;2022-10-17T03:23:57;15.20;99.90
67890;DHT22;54685;52.082;5.426;2022-10-17T03:26:24;15.20;99.90
67890;DHT22;54685;52.082;5.426;2022-10-17T03:28:51;15.20;99.90
67890;DHT22;54685;52.082;5.426;2022-10-17T03:31:21;15.20;99.90
67890;DHT22;54685;52.082;5.426;2022-10-17T03:33:49;15.20;99.90
67890;DHT22;54685;52.082;5.426;2022-10-17T03:36:17;15.20;99.90
67890;DHT22;54685;52.082;5.426;2022-10-17T03:38:46;15.20;99.90
67890;DHT22;54685;52.082;5.426;2022-10-17T03:41:13;15.20;99.90
67890;DHT22;54685;52.082;5.426;2022-10-17T03:43:39;15.20;99.90
67890;DHT22;54685;52.082;5.426;2022-10-17T03:46:07;15.20;99.90
67890;DHT22;54685;52.082;5.426;2022-10-17T03:48:35;15.20;99.90
67890;DHT22;54685;52.082;5.426;2022-10-17T03:51:05;15.20;99.90
67890;DHT22;54685;52.082;5.426;2022-10-17T03:53:36;15.20;99.90
67890;DHT22;54685;52.082;5.426;2022-10-17T03:56:14;15.20;99.90
67890;DHT22;54685;52.082;5.426;2022-10-17T03:58:42;15.20;99.90
67890;DHT22;54685;52.082;5.426;2022-10-17T04:01:11;15.20;99.90
67890;DHT22;54685;52.082;5.426;2022-10-17T04:03:39;15.20;99.90
67890;DHT22;54685;52.082;5.426;2022-10-17T04:06:06;15.20;99.90
67890;DHT22;54685;52.082;5.426;2022-10-17T04:08:35;15.20;99.90
67890;DHT22;54685;52.082;5.426;2022-10-17T04:11:14;15.20;99.90
67890;DHT22;54685;52.082;5.426;2022-10-17T04:13:42;15.20;99.90
67890;DHT22;54685;52.082;5.426;2022-10-17T04:16:13;15.20;99.90
67890;DHT22;54685;52.082;5.426;2022-10-17T04:18:53;15.20;99.90
67890;DHT22;54685;52.082;5.426;2022-10-17T04:21:24;15.10;99.90
67890;DHT22;54685;52.082;5.426;2022-10-17T04:23:55;15.20;99.90
67890;DHT22;54685;52.082;5.426;2022-10-17T04:26:38;15.20;99.90
67890;DHT22;54685;52.082;5.426;2022-10-17T04:29:05;15.20;99.90
67890;DHT22;54685;52.082;5.426;2022-10-17T04:31:32;15.20;99.90
67890;DHT22;54685;52.082;5.426;2022-10-17T04:34:19;15.20;99.90
67890;DHT22;54685;52.082;5.426;2022-10-17T04:36:46;15.20;99.90
67890;DHT22;54685;52.082;5.426;2022-10-17T04:39:13;15.20;99.90
67890;DHT22;54685;52.082;5.426;2022-10-17T04:41:40;15.20;99.90
67890;DHT22;54685;52.082;5.426;2022-10-17T04:44:09;15.20;99.90
67890;DHT22;54685;52.082;5.426;2022-10-17T04:46:39;15.20;99.90
67890;DHT22;54685;52.082;5.426;2022-10-17T04:49:07;15.20;99.90
67890;DHT22;54685;52.082;5.426;2022-10-17T04:51:37;15.30;99.90
67890;DHT22;54685;52.082;5.426;2022-10-17T04:54:15;15.30;99.90
67890;DHT22;54685;52.082;5.426;2022-10-17T04:56:45;15.30;99.90
67890;DHT22;54685;52.082;5.426;2022-10-17T04:59:12;15.30;99.90
67890;DHT22;54685;52.082;5.426;2022-10-17T05:01:41;15.30;99.90
67890;DHT22;54685;52.082;5.426;2022-10-17T05:04:08;15.40;99.90
67890;DHT22;54685;52.082;5.426;2022-10-17T05:06:36;15.40;99.90
67890;DHT22;54685;52.082;5.426;2022-10-17T05:09:31;15.40;99.90
67890;DHT22;54685;52.082;5.426;2022-10-17T05:11:58;15.40;99.90
67890;DHT22;54685;52.082;5.426;2022-10-17T05:14:25;15.50;99.90
67890;DHT22;54685;52.082;5.426;2022-10-17T05:16:52;15.40;99.90
67890;DHT22;54685;52.082;5.426;2022-10-17T05:19:19;15.40;99.90
67890;DHT22;54685;52.082;5.426;2022-10-17T05:21:48;15.40;99.90
67890;DHT22;54685;52.082;5.426;2022-10-17T05:24:15;15.50;99.90
67890;DHT22;54685;52.082;5.426;2022-10-17T05:26:42;15.50;99.90
67890;DHT22;54685;52.082;5.426;2022-10-17T05:29:09;15.50;99.90
67890;DHT22;54685;52.082;5.426;2022-10-17T05:31:40;15.50;99.90
67890;DHT22;54685;52.082;5.426;2022-10-17T05:34:07;15.50;99.90
67890;DHT22;54685;52.082;5.426;2022-10-17T05:36:39;15.50;99.90
67890;DHT22;54685;52.082;5.426;2022-10-17T05:39:07;15.50;99.90
67890;DHT22;54685;52.082;5.426;2022-10-17T05:41:35;15.50;99.90
67890;DHT22;54685;52.082;5.426;2022-10-17T05:44:03;15.50;99.90
67890;DHT22;54685;52.082;5.426;2022-10-17T05:46:40;15.60;99.90
67890;DHT22;54685;52.082;5.426;2022-10-17T05:49:09;15.60;99.90
67890;DHT22;54685;52.082;5.426;2022-10-17T05:51:56;15.60;99.90
67890;DHT22;54685;52.082;5.426;2022-10-17T05:54:24;15.60;99.90
67890;DHT22;54685;52.082;5.426;2022-10-17T05:56:54;15.50;99.90
67890;DHT22;54685;52.082;5.426;2022-10-17T05:59:26;15.50;99.90
67890;DHT22;54685;52.082;5.426;2022-10-17T06:02:01;15.60;99.90
67890;DHT22;54685;52.082;5.426;2022-10-17T06:04:29;15.50;99.90
67890;DHT22;54685;52.082;5.426;2022-10-17T06:06:55;15.60;99.90
67890;DHT22;54685;52.082;5.426;2022-10-17T06:09:23;15.60;99.90
67890;DHT22;54685;52.082;5.426;2022-10-17T06:11:52;15.50;99.90
67890;DHT22;54685;52.082;5.426;2022-10-17T06:14:19;15.50;99.90
67890;DHT22;54685;52.082;5.426;2022-10-17T06:16:51;15.50;99.90
67890;DHT22;54685;52.082;5.426;2022-10-17T06:19:20;15.50;99.90
67890;DHT22;54685;52.082;5.426;2022-10-17T06:21:46;15.60;99.90
67890;DHT22;54685;52.082;5.426;2022-10-17T06:24:18;15.60;99.90
67890;DHT22;54685;52.082;5.426;2022-10-17T06:26:45;15.50;99.90
67890;DHT22;54685;52.082;5.426;2022-10-17T06:29:14;15.50;99.90
67890;DHT22;54685;52.082;5.426;2022-10-17T06:31:45;15.50;99.90
67890;DHT22;54685;52.082;5.426;2022-10-17T06:34:12;15.60;99.90
67890;DHT22;54685;52.082;5.426;2022-10-17T06:36:39;15.60;99.90
67890;DHT22;54685;52.082;5.426;2022-10-17T06:39:08;15.60;99.90
67890;DHT22;54685;52.082;5.426;2022-10-17T06:41:39;15.60;99.90
67890;DHT22;54685;52.082;5.426;2022-10-17T06:44:07;15.70;99.90
67890;DHT22;54685;52.082;5.426;2022-10-17T06:46:55;15.60;99.90
67890;DHT22;54685;52.082;5.426;2022-10-17T06:49:22;15.60;99.90
67890;DHT22;54685;52.082;5.426;2022-10-17T06:52:09;15.70;99.90
67890;DHT22;54685;52.082;5.426;2022-10-17T06:54:46;15.70;99.90
67890;DHT22;54685;52.082;5.426;2022-10-17T06:57:36;15.80;99.90
67890;DHT22;54685;52.082;5.426;2022-10-17T07:00:24;15.80;99.90
67890;DHT22;54685;52.082;5.426;2022-10-17T07:02:55;15.80;99.90
67890;DHT22;54685;52.082;5.426;2022-10-17T07:05:22;15.80;99.90
67890;DHT22;54685;52.082;5.426;2022-10-17T07:07:48;15.80;99.90
67890;DHT22;54685;52.082;5.426;2022-10-17T07:10:17;15.80;99.90
67890;DHT22;54685;52.082;5.426;2022-10-17T07:12:44;15.80;99.90
67890;DHT22;54685;52.082;5.426;2022-10-17T07:15:11;15.80;99.90
67890;DHT22;54685;52.082;5.426;2022-10-17T07:17:39;15.90;99.90
67890;DHT22;54685;52.082;5.426;2022-10-17T07:20:06;15.90;99.90
67890;DHT22;54685;52.082;5.426;2022-10-17T07:22:34;15.90;99.90
67890;DHT22;54685;52.082;5.426;2022-10-17T07:25:01;15.90;99.90
67890;DHT22;54685;52.082;5.426;2022-10-17T07:27:33;15.90;99.90
67890;DHT22;54685;52.082;5.426;2022-10-17T07:30:00;15.90;99.90
67890;DHT22;54685;52.082;5.426;2022-10-17T07:32:36;15.90;99.90
67890;DHT22;54685;52.082;5.426;2022-10-17T07:35:04;15.90;99.90
67890;DHT22;54685;52.082;5.426;2022-10-17T07:37:32;15.90;99.90
67890;DHT22;54685;52.082;5.426;2022-10-17T07:39:59;15.90;99.90
67890;DHT22;54685;52.082;5.426;2022-10-17T07:42:26;15.90;99.90
67890;DHT22;54685;52.082;5.426;2022-10-17T07:44:54;15.90;99.90
67890;DHT22;54685;52.082;5.426;2022-10-17T07:47:21;16.00;99.90
67890;DHT22;54685;52.082;5.426;2022-10-17T07:49:49;16.00;99.90
67890;DHT22;54685;52.082;5.426;2022-10-17T07:52:16;16.00;99.90
67890;DHT22;54685;52.082;5.426;2022-10-17T07:54:43;16.00;99.90
67890;DHT22;54685;52.082;5.426;2022-10-17T07:57:10;16.00;99.90
67890;DHT22;54685;52.082;5.426;2022-10-17T07:59:37;16.00;99.90
67890;DHT22;54685;52.082;5.426;2022-10-17T08:02:04;16.00;99.90
67890;DHT22;54685;52.082;5.426;2022-10-17T08:04:30;16.00;99.90
67890;DHT22;54685;52.082;5.426;2022-10-17T08:06:59;16.00;99.90
67890;DHT22;54685;52.082;5.426;2022-10-17T08:09:46;16.00;99.90
67890;DHT22;54685;52.082;5.426;2022-10-17T08:12:13;16.10;99.90
67890;DHT22;54685;52.082;5.426;2022-10-17T08:14:41;16.00;99.90
67890;DHT22;54685;52.082;5.426;2022-10-17T08:17:08;16.00;99.90
67890;DHT22;54685;52.082;5.426;2022-10-17T08:19:39;16.00;99.90
67890;DHT22;54685;52.082;5.426;2022-10-17T08:22:06;16.00;99.90
67890;DHT22;54685;52.082;5.426;2022-10-17T08:24:33;16.00;99.90
67890;DHT22;54685;52.082;5.426;2022-10-17T08:26:59;16.00;99.90
67890;DHT22;54685;52.082;5.426;2022-10-17T08:29:26;15.90;99.90
67890;DHT22;54685;52.082;5.426;2022-10-17T08:31:53;16.00;99.90
67890;DHT22;54685;52.082;5.426;2022-10-17T08:34:26;16.00;99.90
67890;DHT22;54685;52.082;5.426;2022-10-17T08:36:53;16.00;99.90
67890;DHT22;54685;52.082;5.426;2022-10-17T08:39:20;16.00;99.90
67890;DHT22;54685;52.082;5.426;2022-10-17T08:44:55;16.10;99.90
67890;DHT22;54685;52.082;5.426;2022-10-17T08:47:28;16.10;99.90
67890;DHT22;54685;52.082;5.426;2022-10-17T08:50:02;16.10;99.90
67890;DHT22;54685;52.082;5.426;2022-10-17T08:55:21;16.20;99.90
67890;DHT22;54685;52.082;5.426;2022-10-17T08:57:50;16.20;99.90
67890;DHT22;54685;52.082;5.426;2022-10-17T09:00:19;16.20;99.90
67890;DHT22;54685;52.082;5.426;2022-10-17T09:02:49;16.20;99.90
67890;DHT22;54685;52.082;5.426;2022-10-17T09:05:33;16.20;99.90
67890;DHT22;54685;52.082;5.426;2022-10-17T09:18:40;16.30;99.90
67890;DHT22;54685;52.082;5.426;2022-10-17T09:21:32;16.30;99.90
67890;DHT22;54685;52.082;5.426;2022-10-17T09:24:05;16.30;99.90
67890;DHT22;54685;52.082;5.426;2022-10-17T09:26:44;16.30;99.90
67890;DHT22;54685;52.082;5.426;2022-10-17T09:29:18;16.30;99.90
67890;DHT22;54685;52.082;5.426;2022-10-17T09:32:01;16.30;99.90
67890;DHT22;54685;52.082;5.426;2022-10-17T09:34:30;16.30;99.90
67890;DHT22;54685;52.082;5.426;2022-10-17T09:36:59;16.30;99.90
67890;DHT22;54685;52.082;5.426;2022-10-17T09:39:26;16.30;99.90
67890;DHT22;54685;52.082;5.426;2022-10-17T09:41:59;16.30;99.90
67890;DHT22;54685;52.082;5.426;2022-10-17T09:44:31;16.30;99.90
67890;DHT22;54685;52.082;5.426;2022-10-17T09:49:52;16.30;99.90
67890;DHT22;54685;52.082;5.426;2022-10-17T09:52:39;16.30;99.90
67890;DHT22;54685;52.082;5.426;2022-10-17T09:55:35;16.40;99.90
67890;DHT22;54685;52.082;5.426;2022-10-17T09:58:05;16.40;99.90
67890;DHT22;54685;52.082;5.426;2022-10-17T10:00:45;16.40;99.90
67890;DHT22;54685;52.082;5.426;2022-10-17T10:08:30;16.50;99.90
67890;DHT22;54685;52.082;5.426;2022-10-17T10:10:59;16.50;99.90
67890;DHT22;54685;52.082;5.426;2022-10-17T10:13:30;16.50;99.90
67890;DHT22;54685;52.082;5.426;2022-10-17T10:16:22;16.50;99.90
67890;DHT22;54685;52.082;5.426;2022-10-17T10:18:50;16.50;99.90
67890;DHT22;54685;52.082;5.426;2022-10-17T10:21:25;16.50;99.90
67890;DHT22;54685;52.082;5.426;2022-10-17T10:26:40;16.50;99.90
67890;DHT22;54685;52.082;5.426;2022-10-17T10:31:50;16.60;99.90
67890;DHT22;54685;52.082;5.426;2022-10-17T10:34:21;16.50;99.90
67890;DHT22;54685;52.082;5.426;2022-10-17T10:39:48;16.60;99.90
67890;DHT22;54685;52.082;5.426;2022-10-17T10:42:36;16.60;99.90
67890;DHT22;54685;52.082;5.426;2022-10-17T10:45:22;16.60;99.90
67890;DHT22;54685;52.082;5.426;2022-10-17T10:50:44;16.50;99.90
67890;DHT22;54685;52.082;5.426;2022-10-17T10:53:31;16.60;99.90
67890;DHT22;54685;52.082;5.426;2022-10-17T10:56:21;16.60;99.90
67890;DHT22;54685;52.082;5.426;2022-10-17T10:58:57;16.60;99.90
67890;DHT22;54685;52.082;5.426;2022-10-17T11:04:31;16.60;99.90
67890;DHT22;54685;52.082;5.426;2022-10-17T11:07:05;16.60;99.90
67890;DHT22;54685;52.082;5.426;2022-10-17T11:09:39;16.60;99.90
67890;DHT22;54685;52.082;5.426;2022-10-17T11:12:23;16.60;99.90
67890;DHT22;54685;52.082;5.426;2022-10-17T11:17:39;16.60;99.90
67890;DHT22;54685;52.082;5.426;2022-10-17T11:27:37;16.70;99.90
67890;DHT22;54685;52.082;5.426;2022-10-17T11:30:04;16.70;99.90
67890;DHT22;54685;52.082;5.426;2022-10-17T11:32:49;16.70;99.90
67890;DHT22;54685;52.082;5.426;2022-10-17T11:35:25;16.70;99.90
67890;DHT22;54685;52.082;5.426;2022-10-17T11:40:55;16.70;99.90
67890;DHT22;54685;52.082;5.426;2022-10-17T11:43:56;16.70;99.90
67890;DHT22;54685;52.082;5.426;2022-10-17T11:46:26;16.70;99.90
67890;DHT22;54685;52.082;5.426;2022-10-17T11:49:09;16.70;99.90
67890;DHT22;54685;52.082;5.426;2022-10-17T11:54:39;16.70;99.90
67890;DHT22;54685;52.082;5.426;2022-10-17T11:57:40;16.80;99.90
67890;DHT22;54685;52.082;5.426;2022-10-17T12:00:20;16.80;99.90
67890;DHT22;54685;52.082;5.426;2022-10-17T12:06:10;16.90;99.90
67890;DHT22;54685;52.082;5.426;2022-10-17T12:11:39;16.90;99.90
67890;DHT22;54685;52.082;5.426;2022-10-17T12:19:51;17.00;99.90
67890;DHT22;54685;52.082;5.426;2022-10-17T12:22:21;17.00;99.90
67890;DHT22;54685;52.082;5.426;2022-10-17T12:24:55;17.10;99.90
67890;DHT22;54685;52.082;5.426;2022-10-17T12:30:14;17.10;99.90
67890;DHT22;54685;52.082;5.426;2022-10-17T12:33:10;17.10;99.90
67890;DHT22;54685;52.082;5.426;2022-10-17T12:35:44;17.10;99.90
67890;DHT22;54685;52.082;5.426;2022-10-17T12:45:50;17.10;99.90
67890;DHT22;54685;52.082;5.426;2022-10-17T12:51:16;17.10;99.90
67890;DHT22;54685;52.082;5.426;2022-10-17T12:54:09;17.10;99.90
67890;DHT22;54685;52.082;5.426;2022-10-17T12:56:40;17.10;99.90
67890;DHT22;54685;52.082;5.426;2022-10-17T12:59:14;17.10;99.90
67890;DHT22;54685;52.082;5.426;2022-10-17T13:01:46;17.00;99.90
67890;DHT22;54685;52.082;5.426;2022-10-17T13:04:14;17.00;99.90
67890;DHT22;54685;52.082;5.426;2022-10-17T13:06:50;17.00;99.90
67890;DHT22;54685;52.082;5.426;2022-10-17T13:11:50;17.00;99.90
67890;DHT22;54685;52.082;5.426;2022-10-17T13:14:20;17.10;99.90
67890;DHT22;54685;52.082;5.426;2022-10-17T13:17:00;17.10;99.90
67890;DHT22;54685;52.082;5.426;2022-10-17T13:19:43;17.10;99.90
67890;DHT22;54685;52.082;5.426;2022-10-17T13:24:42;17.10;99.90
67890;DHT22;54685;52.082;5.426;2022-10-17T13:27:29;17.10;99.90
67890;DHT22;54685;52.082;5.426;2022-10-17T13:29:58;17.20;99.90
67890;DHT22;54685;52.082;5.426;2022-10-17T13:32:36;17.20;99.90
67890;DHT22;54685;52.082;5.426;2022-10-17T13:35:12;17.20;99.90
67890;DHT22;54685;52.082;5.426;2022-10-17T13:37:41;17.20;99.90
67890;DHT22;54685;52.082;5.426;2022-10-17T13:40:19;17.30;99.90
67890;DHT22;54685;52.082;5.426;2022-10-17T13:43:15;17.30;99.90
67890;DHT22;54685;52.082;5.426;2022-10-17T13:45:49;17.30;99.90
67890;DHT22;54685;52.082;5.426;2022-10-17T13:48:22;17.30;99.90
67890;DHT22;54685;52.082;5.426;2022-10-17T13:50:58;17.30;99.90
67890;DHT22;54685;52.082;5.426;2022-10-17T13:53:34;17.30;99.90
67890;DHT22;54685;52.082;5.426;2022-10-17T13:58:52;17.20;99.90
67890;DHT22;54685;52.082;5.426;2022-10-17T14:01:19;17.20;99.90
67890;DHT22;54685;52.082;5.426;2022-10-17T14:03:47;17.20;99.90
67890;DHT22;54685;52.082;5.426;2022-10-17T14:06:29;17.20;99.90
67890;DHT22;54685;52.082;5.426;2022-10-17T14:08:57;17.30;99.90
67890;DHT22;54685;52.082;5.426;2022-10-17T14:13:56;17.30;99.90
67890;DHT22;54685;52.082;5.426;2022-10-17T14:16:25;17.30;99.90
67890;DHT22;54685;52.082;5.426;2022-10-17T14:18:53;17.30;99.90
67890;DHT22;54685;52.082;5.426;2022-10-17T14:21:25;17.30;99.90
67890;DHT22;54685;52.082;5.426;2022-10-17T14:24:28;17.30;99.90
67890;DHT22;54685;52.082;5.426;2022-10-17T14:26:57;17.30;99.90
67890;DHT22;54685;52.082;5.426;2022-10-17T14:29:48;17.30;99.90
67890;DHT22;54685;52.082;5.426;2022-10-17T14:32:17;17.30;99.90
67890;DHT22;54685;52.082;5.426;2022-10-17T14:34:44;17.30;99.90
67890;DHT22;54685;52.082;5.426;2022-10-17T14:39:50;17.30;99.90
67890;DHT22;54685;52.082;5.426;2022-10-17T14:42:18;17.30;99.90
67890;DHT22;54685;52.082;5.426;2022-10-17T14:44:50;17.40;99.90
67890;DHT22;54685;52.082;5.426;2022-10-17T14:47:24;17.40;99.90
67890;DHT22;54685;52.082;5.426;2022-10-17T14:52:36;17.50;99.90
67890;DHT22;54685;52.082;5.426;2022-10-17T14:55:23;17.50;99.90
67890;DHT22;54685;52.082;5.426;2022-10-17T14:57:50;17.50;99.90
67890;DHT22;54685;52.082;5.426;2022-10-17T15:00:19;17.50;99.90
67890;DHT22;54685;52.082;5.426;2022-10-17T15:02:47;17.50;99.90
67890;DHT22;54685;52.082;5.426;2022-10-17T15:05:15;17.50;99.90
67890;DHT22;54685;52.082;5.426;2022-10-17T15:07:42;17.40;99.90
67890;DHT22;54685;52.082;5.426;2022-10-17T15:12:50;17.40;99.90
67890;DHT22;54685;52.082;5.426;2022-10-17T15:15:25;17.40;99.90
67890;DHT22;54685;52.082;5.426;2022-10-17T15:17:52;17.40;99.90
67890;DHT22;54685;52.082;5.426;2022-10-17T15:20:19;17.40;99.90
67890;DHT22;54685;52.082;5.426;2022-10-17T15:22:51;17.40;99.90
67890;DHT22;54685;52.082;5.426;2022-10-17T15:25:19;17.40;99.90
67890;DHT22;54685;52.082;5.426;2022-10-17T15:27:46;17.40;99.90
67890;DHT22;54685;52.082;5.426;2022-10-17T15:30:22;17.40;99.90
67890;DHT22;54685;52.082;5.426;2022-10-17T15:32:50;17.50;99.90
67890;DHT22;54685;52.082;5.426;2022-10-17T15:35:17;17.40;99.90
67890;DHT22;54685;52.082;5.426;2022-10-17T15:37:44;17.40;99.90
67890;DHT22;54685;52.082;5.426;2022-10-17T15:40:22;17.40;99.90
67890;DHT22;54685;52.082;5.426;2022-10-17T15:42:50;17.40;99.90
67890;DHT22;54685;52.082;5.426;2022-10-17T15:45:18;17.40;99.90
67890;DHT22;54685;52.082;5.426;2022-10-17T15:47:56;17.40;99.90
67890;DHT22;54685;52.082;5.426;2022-10-17T15:50:24;17.30;99.90
67890;DHT22;54685;52.082;5.426;2022-10-17T15:52:50;17.30;99.90
67890;DHT22;54685;52.082;5.426;2022-10-17T15:55:18;17.30;99.90
67890;DHT22;54685;52.082;5.426;2022-10-17T15:57:46;17.30;99.90
67890;DHT22;54685;52.082;5.426;2022-10-17T16:00:22;17.20;99.90
67890;DHT22;54685;52.082;5.426;2022-10-17T16:02:49;17.20;99.90
67890;DHT22;54685;52.082;5.426;2022-10-17T16:05:18;17.20;99.90
67890;DHT22;54685;52.082;5.426;2022-10-17T16:07:48;17.10;99.90
67890;DHT22;54685;52.082;5.426;2022-10-17T16:10:16;17.10;99.90
67890;DHT22;54685;52.082;5.426;2022-10-17T16:12:43;17.00;99.90
67890;DHT22;54685;52.082;5.426;2022-10-17T16:15:24;17.00;99.90
67890;DHT22;54685;52.082;5.426;2022-10-17T16:17:53;17.00;99.90
67890;DHT22;54685;52.082;5.426;2022-10-17T16:20:21;17.00;99.90
67890;DHT22;54685;52.082;5.426;2022-10-17T16:22:48;16.90;99.90
67890;DHT22;54685;52.082;5.426;2022-10-17T16:25:21;16.90;99.90
67890;DHT22;54685;52.082;5.426;2022-10-17T16:27:54;16.90;99.90
67890;DHT22;54685;52.082;5.426;2022-10-17T16:30:22;16.80;99.90
67890;DHT22;54685;52.082;5.426;2022-10-17T16:32:49;16.80;99.90
67890;DHT22;54685;52.082;5.426;2022-10-17T16:35:22;16.80;99.90
67890;DHT22;54685;52.082;5.426;2022-10-17T16:37:49;16.70;99.90
67890;DHT22;54685;52.082;5.426;2022-10-17T16:40:16;16.70;99.90
67890;DHT22;54685;52.082;5.426;2022-10-17T16:42:43;16.70;99.90
67890;DHT22;54685;52.082;5.426;2022-10-17T16:45:19;16.60;99.90
67890;DHT22;54685;52.082;5.426;2022-10-17T16:47:47;16.60;99.90
67890;DHT22;54685;52.082;5.426;2022-10-17T16:50:14;16.60;99.90
67890;DHT22;54685;52.082;5.426;2022-10-17T16:52:42;16.60;99.90
67890;DHT22;54685;52.082;5.426;2022-10-17T16:55:09;16.60;99.90
67890;DHT22;54685;52.082;5.426;2022-10-17T16:57:36;16.50;99.90
67890;DHT22;54685;52.082;5.426;2022-10-17T17:00:04;16.50;99.90
67890;DHT22;54685;52.082;5.426;2022-10-17T17:02:31;16.50;99.90
67890;DHT22;54685;52.082;5.426;2022-10-17T17:04:59;16.50;99.90
67890;DHT22;54685;52.082;5.426;2022-10-17T17:07:26;16.50;99.90
67890;DHT22;54685;52.082;5.426;2022-10-17T17:09:55;16.50;99.90
67890;DHT22;54685;52.082;5.426;2022-10-17T17:12:22;16.40;99.90
67890;DHT22;54685;52.082;5.426;2022-10-17T17:14:49;16.40;99.90
67890;DHT22;54685;52.082;5.426;2022-10-17T17:17:16;16.40;99.90
67890;DHT22;54685;52.082;5.426;2022-10-17T17:20:04;16.30;99.90
67890;DHT22;54685;52.082;5.426;2022-10-17T17:22:31;16.30;99.90
67890;DHT22;54685;52.082;5.426;2022-10-17T17:24:58;16.30;99.90
67890;DHT22;54685;52.082;5.426;2022-10-17T17:27:27;16.30;99.90
67890;DHT22;54685;52.082;5.426;2022-10-17T17:29:54;16.30;99.90
67890;DHT22;54685;52.082;5.426;2022-10-17T17:32:21;16.30;99.90
67890;DHT22;54685;52.082;5.426;2022-10-17T17:34:47;16.20;99.90
67890;DHT22;54685;52.082;5.426;2022-10-17T17:37:14;16.20;99.90
67890;DHT22;54685;52.082;5.426;2022-10-17T17:39:41;16.20;99.90
67890;DHT22;54685;52.082;5.426;2022-10-17T17:42:08;16.20;99.90
67890;DHT22;54685;52.082;5.426;2022-10-17T17:44:35;16.20;99.90
67890;DHT22;54685;52.082;5.426;2022-10-17T17:47:02;16.20;99.90
67890;DHT22;54685;52.082;5.426;2022-10-17T17:49:28;16.20;99.90
67890;DHT22;54685;52.082;5.426;2022-10-17T17:51:55;16.20;99.90
67890;DHT22;54685;52.082;5.426;2022-10-17T17:54:22;16.20;99.90
67890;DHT22;54685;52.082;5.426;2022-10-17T17:56:49;16.20;99.90
67890;DHT22;54685;52.082;5.426;2022-10-17T17:59:15;16.20;99.90
67890;DHT22;54685;52.082;5.426;2022-10-17T18:01:42;16.20;99.90
67890;DHT22;54685;52.082;5.426;2022-10-17T18:04:10;16.10;99.90